sensor_id;sensor_type;location;lat;lon;timestamp;P1;durP1;ratioP1;P2;durP2;ratioP2
42092;SDS011;28974;50.316;18.960;2024-02-28T00:04:40;198.68;;;84.75;;
42092;SDS011;28974;50.316;18.960;2024-02-28T00:16:42;172.00;;;81.55;;
42092;SDS011;28974;50.316;18.960;2024-02-28T00:28:46;177.95;;;77.35;;
42092;SDS011;28974;50.316;18.960;2024-02-28T00:40:48;185.90;;;84.55;;
42092;SDS011;28974;50.316;18.960;2024-02-28T00:52:54;181.75;;;81.05;;
42092;SDS011;28974;50.316;18.960;2024-02-28T01:04:59;161.35;;;69.47;;
42092;SDS011;28974;50.316;18.960;2024-02-28T01:17:10;170.18;;;77.90;;
42092;SDS011;28974;50.316;18.960;2024-02-28T01:29:38;180.48;;;79.85;;
42092;SDS011;28974;50.316;18.960;2024-02-28T01:41:49;194.70;;;86.03;;
42092;SDS011;28974;50.316;18.960;2024-02-28T01:53:52;175.05;;;80.55;;
42092;SDS011;28974;50.316;18.960;2024-02-28T02:05:55;183.20;;;84.75;;
42092;SDS011;28974;50.316;18.960;2024-02-28T02:18:01;175.40;;;82.43;;
42092;SDS011;28974;50.316;18.960;2024-02-28T02:30:04;179.55;;;80.82;;
42092;SDS011;28974;50.316;18.960;2024-02-28T02:42:09;164.27;;;79.03;;
42092;SDS011;28974;50.316;18.960;2024-02-28T02:54:14;184.55;;;81.15;;
42092;SDS011;28974;50.316;18.960;2024-02-28T03:06:18;190.45;;;82.82;;
42092;SDS011;28974;50.316;18.960;2024-02-28T03:18:21;198.45;;;84.57;;
42092;SDS011;28974;50.316;18.960;2024-02-28T03:30:24;202.52;;;86.85;;
42092;SDS011;28974;50.316;18.960;2024-02-28T03:42:29;171.88;;;77.40;;
42092;SDS011;28974;50.316;18.960;2024-02-28T03:54:32;181.65;;;80.28;;
42092;SDS011;28974;50.316;18.960;2024-02-28T04:06:36;152.48;;;69.97;;
42092;SDS011;28974;50.316;18.960;2024-02-28T04:18:39;141.88;;;64.18;;
42092;SDS011;28974;50.316;18.960;2024-02-28T04:30:43;150.40;;;62.22;;
42092;SDS011;28974;50.316;18.960;2024-02-28T04:42:49;147.63;;;65.03;;
42092;SDS011;28974;50.316;18.960;2024-02-28T04:54:51;160.38;;;65.63;;
42092;SDS011;28974;50.316;18.960;2024-02-28T05:06:56;135.35;;;57.47;;
42092;SDS011;28974;50.316;18.960;2024-02-28T05:18:58;135.35;;;58.95;;
42092;SDS011;28974;50.316;18.960;2024-02-28T05:31:03;133.55;;;57.90;;
42092;SDS011;28974;50.316;18.960;2024-02-28T05:43:21;133.63;;;53.78;;
42092;SDS011;28974;50.316;18.960;2024-02-28T05:55:23;129.75;;;59.42;;
42092;SDS011;28974;50.316;18.960;2024-02-28T06:07:29;149.52;;;59.17;;
42092;SDS011;28974;50.316;18.960;2024-02-28T06:19:31;136.35;;;59.83;;
42092;SDS011;28974;50.316;18.960;2024-02-28T06:31:36;132.13;;;58.80;;
42092;SDS011;28974;50.316;18.960;2024-02-28T06:43:38;135.52;;;55.40;;
42092;SDS011;28974;50.316;18.960;2024-02-28T06:55:41;162.82;;;67.60;;
42092;SDS011;28974;50.316;18.960;2024-02-28T07:07:49;128.27;;;59.17;;
42092;SDS011;28974;50.316;18.960;2024-02-28T07:19:51;138.45;;;60.65;;
42092;SDS011;28974;50.316;18.960;2024-02-28T07:31:53;134.25;;;63.08;;
42092;SDS011;28974;50.316;18.960;2024-02-28T07:43:57;268.48;;;115.22;;
42092;SDS011;28974;50.316;18.960;2024-02-28T07:55:59;245.18;;;109.97;;
42092;SDS011;28974;50.316;18.960;2024-02-28T08:08:00;251.35;;;120.28;;
42092;SDS011;28974;50.316;18.960;2024-02-28T08:20:04;258.33;;;120.60;;
42092;SDS011;28974;50.316;18.960;2024-02-28T08:32:08;243.45;;;108.40;;
42092;SDS011;28974;50.316;18.960;2024-02-28T08:44:14;261.67;;;112.43;;
42092;SDS011;28974;50.316;18.960;2024-02-28T08:56:20;249.05;;;111.75;;
42092;SDS011;28974;50.316;18.960;2024-02-28T09:08:28;248.45;;;113.95;;
42092;SDS011;28974;50.316;18.960;2024-02-28T09:20:36;246.45;;;106.78;;
42092;SDS011;28974;50.316;18.960;2024-02-28T09:32:43;247.32;;;109.63;;
42092;SDS011;28974;50.316;18.960;2024-02-28T09:44:47;295.80;;;124.28;;
42092;SDS011;28974;50.316;18.960;2024-02-28T09:56:48;258.02;;;111.32;;
42092;SDS011;28974;50.316;18.960;2024-02-28T10:08:52;290.48;;;117.35;;
42092;SDS011;28974;50.316;18.960;2024-02-28T10:20:55;263.08;;;106.50;;
42092;SDS011;28974;50.316;18.960;2024-02-28T10:32:58;245.07;;;99.07;;
42092;SDS011;28974;50.316;18.960;2024-02-28T10:45:00;211.43;;;91.80;;
42092;SDS011;28974;50.316;18.960;2024-02-28T10:57:02;259.02;;;106.95;;
42092;SDS011;28974;50.316;18.960;2024-02-28T11:09:04;288.92;;;107.80;;
42092;SDS011;28974;50.316;18.960;2024-02-28T11:21:15;278.38;;;105.18;;
42092;SDS011;28974;50.316;18.960;2024-02-28T11:33:16;273.92;;;105.80;;
42092;SDS011;28974;50.316;18.960;2024-02-28T11:45:20;255.90;;;102.93;;
42092;SDS011;28974;50.316;18.960;2024-02-28T11:57:22;261.25;;;98.03;;
42092;SDS011;28974;50.316;18.960;2024-02-28T12:09:23;256.48;;;98.18;;
42092;SDS011;28974;50.316;18.960;2024-02-28T12:21:26;270.30;;;99.10;;
42092;SDS011;28974;50.316;18.960;2024-02-28T12:33:28;261.85;;;97.20;;
42092;SDS011;28974;50.316;18.960;2024-02-28T12:45:29;258.60;;;96.90;;
42092;SDS011;28974;50.316;18.960;2024-02-28T12:57:31;253.32;;;96.90;;
42092;SDS011;28974;50.316;18.960;2024-02-28T13:09:33;238.32;;;91.78;;
42092;SDS011;28974;50.316;18.960;2024-02-28T13:21:35;237.55;;;96.07;;
42092;SDS011;28974;50.316;18.960;2024-02-28T13:33:37;265.25;;;97.88;;
42092;SDS011;28974;50.316;18.960;2024-02-28T13:45:38;248.20;;;97.60;;
42092;SDS011;28974;50.316;18.960;2024-02-28T13:57:43;242.85;;;92.18;;
42092;SDS011;28974;50.316;18.960;2024-02-28T14:09:45;177.18;;;71.22;;
42092;SDS011;28974;50.316;18.960;2024-02-28T14:21:47;179.15;;;71.82;;
42092;SDS011;28974;50.316;18.960;2024-02-28T14:33:49;173.32;;;65.65;;
42092;SDS011;28974;50.316;18.960;2024-02-28T14:45:51;165.20;;;63.58;;
42092;SDS011;28974;50.316;18.960;2024-02-28T14:57:54;170.07;;;67.40;;
42092;SDS011;28974;50.316;18.960;2024-02-28T15:09:56;169.63;;;66.38;;
42092;SDS011;28974;50.316;18.960;2024-02-28T15:22:01;155.48;;;59.92;;
42092;SDS011;28974;50.316;18.960;2024-02-28T15:34:02;152.90;;;61.07;;
42092;SDS011;28974;50.316;18.960;2024-02-28T15:46:04;146.63;;;58.60;;
42092;SDS011;28974;50.316;18.960;2024-02-28T15:58:05;141.13;;;58.17;;
42092;SDS011;28974;50.316;18.960;2024-02-28T16:10:08;118.85;;;48.40;;
42092;SDS011;28974;50.316;18.960;2024-02-28T16:22:11;144.82;;;55.35;;
42092;SDS011;28974;50.316;18.960;2024-02-28T16:34:13;133.68;;;49.65;;
42092;SDS011;28974;50.316;18.960;2024-02-28T16:46:18;120.00;;;46.13;;
42092;SDS011;28974;50.316;18.960;2024-02-28T16:58:21;124.13;;;47.25;;
42092;SDS011;28974;50.316;18.960;2024-02-28T17:10:22;123.22;;;47.38;;
42092;SDS011;28974;50.316;18.960;2024-02-28T17:22:26;126.97;;;44.53;;
42092;SDS011;28974;50.316;18.960;2024-02-28T17:34:29;112.55;;;41.58;;
42092;SDS011;28974;50.316;18.960;2024-02-28T17:46:30;112.07;;;40.45;;
42092;SDS011;28974;50.316;18.960;2024-02-28T17:58:32;106.88;;;42.58;;
42092;SDS011;28974;50.316;18.960;2024-02-28T18:10:34;114.30;;;42.75;;
42092;SDS011;28974;50.316;18.960;2024-02-28T18:22:35;95.38;;;37.78;;
42092;SDS011;28974;50.316;18.960;2024-02-28T18:34:39;76.32;;;35.75;;
42092;SDS011;28974;50.316;18.960;2024-02-28T18:46:40;81.07;;;33.60;;
42092;SDS011;28974;50.316;18.960;2024-02-28T18:58:41;82.05;;;34.65;;
42092;SDS011;28974;50.316;18.960;2024-02-28T19:10:42;88.93;;;36.35;;
42092;SDS011;28974;50.316;18.960;2024-02-28T19:22:48;84.65;;;33.72;;
42092;SDS011;28974;50.316;18.960;2024-02-28T19:34:50;84.15;;;34.63;;
42092;SDS011;28974;50.316;18.960;2024-02-28T19:46:52;94.20;;;37.80;;
42092;SDS011;28974;50.316;18.960;2024-02-28T19:58:54;94.88;;;35.30;;
42092;SDS011;28974;50.316;18.960;2024-02-28T20:10:56;74.28;;;32.15;;
42092;SDS011;28974;50.316;18.960;2024-02-28T20:22:59;81.82;;;33.67;;
42092;SDS011;28974;50.316;18.960;2024-02-28T20:35:01;101.40;;;41.65;;
42092;SDS011;28974;50.316;18.960;2024-02-28T20:47:03;99.45;;;41.63;;
42092;SDS011;28974;50.316;18.960;2024-02-28T20:59:05;112.15;;;42.25;;
42092;SDS011;28974;50.316;18.960;2024-02-28T21:11:07;96.35;;;42.20;;
42092;SDS011;28974;50.316;18.960;2024-02-28T21:23:09;80.35;;;36.50;;
42092;SDS011;28974;50.316;18.960;2024-02-28T21:35:11;92.28;;;39.80;;
42092;SDS011;28974;50.316;18.960;2024-02-28T21:47:12;95.18;;;34.90;;
42092;SDS011;28974;50.316;18.960;2024-02-28T21:59:14;98.78;;;37.70;;
42092;SDS011;28974;50.316;18.960;2024-02-28T22:11:15;108.30;;;41.05;;
42092;SDS011;28974;50.316;18.960;2024-02-28T22:23:17;71.30;;;28.92;;
42092;SDS011;28974;50.316;18.960;2024-02-28T22:35:18;85.90;;;33.20;;
42092;SDS011;28974;50.316;18.960;2024-02-28T22:47:20;70.65;;;28.30;;
42092;SDS011;28974;50.316;18.960;2024-02-28T22:59:22;51.92;;;22.92;;
42092;SDS011;28974;50.316;18.960;2024-02-28T23:11:24;48.53;;;20.15;;
42092;SDS011;28974;50.316;18.960;2024-02-28T23:23:26;45.38;;;19.10;;
42092;SDS011;28974;50.316;18.960;2024-02-28T23:35:28;53.83;;;20.80;;
42092;SDS011;28974;50.316;18.960;2024-02-28T23:47:34;65.32;;;23.92;;
42092;SDS011;28974;50.316;18.960;2024-02-28T23:59:35;60.20;;;23.83;;
